sensor_id;sensor_type;location;lat;lon;timestamp;P1;durP1;ratioP1;P2;durP2;ratioP2
64684;SDS011;51109;47.414;18.954;2022-09-09T00:01:59;4.35;;;3.10;;
64684;SDS011;51109;47.414;18.954;2022-09-09T00:04:35;4.63;;;2.58;;
64684;SDS011;51109;47.414;18.954;2022-09-09T00:07:07;3.35;;;3.05;;
64684;SDS011;51109;47.414;18.954;2022-09-09T00:10:19;3.00;;;2.70;;
64684;SDS011;51109;47.414;18.954;2022-09-09T00:15:29;3.28;;;2.95;;
64684;SDS011;51109;47.414;18.954;2022-09-09T00:18:13;3.50;;;3.20;;
64684;SDS011;51109;47.414;18.954;2022-09-09T00:25:57;5.13;;;3.17;;
64684;SDS011;51109;47.414;18.954;2022-09-09T00:28:55;3.50;;;2.80;;
64684;SDS011;51109;47.414;18.954;2022-09-09T00:31:29;3.08;;;2.88;;
64684;SDS011;51109;47.414;18.954;2022-09-09T00:36:43;3.60;;;3.00;;
64684;SDS011;51109;47.414;18.954;2022-09-09T00:39:23;4.95;;;2.90;;
64684;SDS011;51109;47.414;18.954;2022-09-09T00:42:16;2.80;;;2.60;;
64684;SDS011;51109;47.414;18.954;2022-09-09T00:45:05;2.60;;;2.40;;
64684;SDS011;51109;47.414;18.954;2022-09-09T00:47:51;3.03;;;2.72;;
64684;SDS011;51109;47.414;18.954;2022-09-09T00:58:30;2.95;;;2.60;;
64684;SDS011;51109;47.414;18.954;2022-09-09T01:01:09;3.63;;;2.60;;
64684;SDS011;51109;47.414;18.954;2022-09-09T01:03:37;3.88;;;2.80;;
64684;SDS011;51109;47.414;18.954;2022-09-09T01:17:13;3.20;;;2.90;;
64684;SDS011;51109;47.414;18.954;2022-09-09T01:27:44;4.22;;;2.88;;
64684;SDS011;51109;47.414;18.954;2022-09-09T01:30:13;5.60;;;3.20;;
64684;SDS011;51109;47.414;18.954;2022-09-09T01:35:11;3.42;;;3.13;;
64684;SDS011;51109;47.414;18.954;2022-09-09T01:37:42;3.33;;;3.03;;
64684;SDS011;51109;47.414;18.954;2022-09-09T01:40:08;4.63;;;3.65;;
64684;SDS011;51109;47.414;18.954;2022-09-09T01:42:34;3.28;;;2.97;;
64684;SDS011;51109;47.414;18.954;2022-09-09T01:45:00;3.85;;;2.85;;
64684;SDS011;51109;47.414;18.954;2022-09-09T01:47:26;5.45;;;3.17;;
64684;SDS011;51109;47.414;18.954;2022-09-09T01:49:52;3.45;;;2.95;;
64684;SDS011;51109;47.414;18.954;2022-09-09T01:52:18;4.85;;;3.13;;
64684;SDS011;51109;47.414;18.954;2022-09-09T01:54:44;5.80;;;3.40;;
64684;SDS011;51109;47.414;18.954;2022-09-09T02:10:01;4.13;;;3.38;;
64684;SDS011;51109;47.414;18.954;2022-09-09T02:12:38;3.63;;;3.33;;
64684;SDS011;51109;47.414;18.954;2022-09-09T02:15:11;4.35;;;4.00;;
64684;SDS011;51109;47.414;18.954;2022-09-09T02:17:57;4.47;;;3.78;;
64684;SDS011;51109;47.414;18.954;2022-09-09T02:20:26;4.00;;;3.60;;
64684;SDS011;51109;47.414;18.954;2022-09-09T02:22:55;9.98;;;4.30;;
64684;SDS011;51109;47.414;18.954;2022-09-09T02:25:22;7.18;;;4.03;;
64684;SDS011;51109;47.414;18.954;2022-09-09T02:27:51;5.03;;;3.58;;
64684;SDS011;51109;47.414;18.954;2022-09-09T02:30:17;3.88;;;3.58;;
64684;SDS011;51109;47.414;18.954;2022-09-09T02:32:45;3.72;;;3.20;;
64684;SDS011;51109;47.414;18.954;2022-09-09T02:35:15;4.18;;;3.10;;
64684;SDS011;51109;47.414;18.954;2022-09-09T02:37:46;4.57;;;2.80;;
64684;SDS011;51109;47.414;18.954;2022-09-09T02:40:13;3.05;;;2.85;;
64684;SDS011;51109;47.414;18.954;2022-09-09T02:42:43;2.70;;;2.50;;
64684;SDS011;51109;47.414;18.954;2022-09-09T02:45:12;2.55;;;2.35;;
64684;SDS011;51109;47.414;18.954;2022-09-09T02:47:50;2.88;;;2.28;;
64684;SDS011;51109;47.414;18.954;2022-09-09T02:50:34;5.63;;;2.90;;
64684;SDS011;51109;47.414;18.954;2022-09-09T02:53:11;2.67;;;2.47;;
64684;SDS011;51109;47.414;18.954;2022-09-09T02:55:47;3.10;;;2.80;;
64684;SDS011;51109;47.414;18.954;2022-09-09T02:58:16;2.83;;;2.63;;
64684;SDS011;51109;47.414;18.954;2022-09-09T03:00:47;4.40;;;2.92;;
64684;SDS011;51109;47.414;18.954;2022-09-09T03:03:15;3.03;;;2.60;;
64684;SDS011;51109;47.414;18.954;2022-09-09T03:05:42;2.67;;;2.47;;
64684;SDS011;51109;47.414;18.954;2022-09-09T03:08:09;5.00;;;2.70;;
64684;SDS011;51109;47.414;18.954;2022-09-09T03:10:35;2.95;;;2.75;;
64684;SDS011;51109;47.414;18.954;2022-09-09T03:13:02;3.40;;;3.10;;
64684;SDS011;51109;47.414;18.954;2022-09-09T03:15:30;4.45;;;2.70;;
64684;SDS011;51109;47.414;18.954;2022-09-09T03:17:58;3.13;;;2.92;;
64684;SDS011;51109;47.414;18.954;2022-09-09T03:20:25;7.07;;;3.58;;
64684;SDS011;51109;47.414;18.954;2022-09-09T03:22:55;9.73;;;3.20;;
64684;SDS011;51109;47.414;18.954;2022-09-09T03:25:22;3.20;;;3.00;;
64684;SDS011;51109;47.414;18.954;2022-09-09T03:27:49;3.92;;;3.53;;
64684;SDS011;51109;47.414;18.954;2022-09-09T03:30:18;3.78;;;3.17;;
64684;SDS011;51109;47.414;18.954;2022-09-09T03:32:44;4.05;;;3.50;;
64684;SDS011;51109;47.414;18.954;2022-09-09T03:35:10;3.30;;;3.10;;
64684;SDS011;51109;47.414;18.954;2022-09-09T03:37:36;3.45;;;3.15;;
64684;SDS011;51109;47.414;18.954;2022-09-09T03:40:04;4.13;;;3.78;;
64684;SDS011;51109;47.414;18.954;2022-09-09T03:42:31;6.35;;;3.55;;
64684;SDS011;51109;47.414;18.954;2022-09-09T03:44:57;5.45;;;3.33;;
64684;SDS011;51109;47.414;18.954;2022-09-09T03:47:24;5.90;;;3.47;;
64684;SDS011;51109;47.414;18.954;2022-09-09T03:49:50;5.22;;;3.90;;
64684;SDS011;51109;47.414;18.954;2022-09-09T03:52:16;4.60;;;4.18;;
64684;SDS011;51109;47.414;18.954;2022-09-09T03:54:43;4.88;;;3.90;;
64684;SDS011;51109;47.414;18.954;2022-09-09T03:57:09;4.88;;;4.47;;
64684;SDS011;51109;47.414;18.954;2022-09-09T03:59:35;5.25;;;4.78;;
64684;SDS011;51109;47.414;18.954;2022-09-09T04:02:01;5.57;;;5.07;;
64684;SDS011;51109;47.414;18.954;2022-09-09T04:04:28;5.97;;;5.30;;
64684;SDS011;51109;47.414;18.954;2022-09-09T04:06:55;7.82;;;5.78;;
64684;SDS011;51109;47.414;18.954;2022-09-09T04:09:20;8.15;;;5.97;;
64684;SDS011;51109;47.414;18.954;2022-09-09T04:11:46;7.25;;;6.55;;
64684;SDS011;51109;47.414;18.954;2022-09-09T04:14:12;11.77;;;7.40;;
64684;SDS011;51109;47.414;18.954;2022-09-09T04:16:38;9.93;;;6.18;;
64684;SDS011;51109;47.414;18.954;2022-09-09T04:19:08;7.30;;;6.60;;
64684;SDS011;51109;47.414;18.954;2022-09-09T04:21:34;8.68;;;6.78;;
64684;SDS011;51109;47.414;18.954;2022-09-09T04:24:00;8.95;;;7.50;;
64684;SDS011;51109;47.414;18.954;2022-09-09T04:26:25;8.10;;;7.35;;
64684;SDS011;51109;47.414;18.954;2022-09-09T04:28:51;8.20;;;7.40;;
64684;SDS011;51109;47.414;18.954;2022-09-09T04:31:18;8.73;;;7.88;;
64684;SDS011;51109;47.414;18.954;2022-09-09T04:33:48;8.07;;;7.28;;
64684;SDS011;51109;47.414;18.954;2022-09-09T04:36:15;12.98;;;7.30;;
64684;SDS011;51109;47.414;18.954;2022-09-09T04:38:41;8.45;;;7.60;;
64684;SDS011;51109;47.414;18.954;2022-09-09T04:41:09;8.05;;;7.30;;
64684;SDS011;51109;47.414;18.954;2022-09-09T04:43:36;8.70;;;7.20;;
64684;SDS011;51109;47.414;18.954;2022-09-09T04:46:03;11.20;;;8.02;;
64684;SDS011;51109;47.414;18.954;2022-09-09T04:48:29;8.15;;;7.45;;
64684;SDS011;51109;47.414;18.954;2022-09-09T04:51:01;8.57;;;7.80;;
64684;SDS011;51109;47.414;18.954;2022-09-09T04:53:29;7.72;;;6.95;;
64684;SDS011;51109;47.414;18.954;2022-09-09T04:56:02;8.20;;;7.50;;
64684;SDS011;51109;47.414;18.954;2022-09-09T04:58:30;9.60;;;7.20;;
64684;SDS011;51109;47.414;18.954;2022-09-09T05:01:06;8.35;;;7.60;;
64684;SDS011;51109;47.414;18.954;2022-09-09T05:03:33;7.70;;;6.90;;
64684;SDS011;51109;47.414;18.954;2022-09-09T05:06:06;8.02;;;7.32;;
64684;SDS011;51109;47.414;18.954;2022-09-09T05:08:37;6.82;;;6.13;;
64684;SDS011;51109;47.414;18.954;2022-09-09T05:11:11;7.88;;;6.88;;
64684;SDS011;51109;47.414;18.954;2022-09-09T05:13:45;9.00;;;6.68;;
64684;SDS011;51109;47.414;18.954;2022-09-09T05:16:11;7.45;;;6.70;;
64684;SDS011;51109;47.414;18.954;2022-09-09T05:18:38;7.22;;;6.60;;
64684;SDS011;51109;47.414;18.954;2022-09-09T05:21:05;7.30;;;6.50;;
64684;SDS011;51109;47.414;18.954;2022-09-09T05:23:32;9.73;;;6.65;;
64684;SDS011;51109;47.414;18.954;2022-09-09T05:26:02;7.78;;;7.00;;
64684;SDS011;51109;47.414;18.954;2022-09-09T05:28:29;9.57;;;7.43;;
64684;SDS011;51109;47.414;18.954;2022-09-09T05:30:59;10.70;;;7.03;;
64684;SDS011;51109;47.414;18.954;2022-09-09T05:33:29;6.20;;;5.60;;
64684;SDS011;51109;47.414;18.954;2022-09-09T05:36:04;6.78;;;6.18;;
64684;SDS011;51109;47.414;18.954;2022-09-09T05:38:49;6.80;;;6.20;;
64684;SDS011;51109;47.414;18.954;2022-09-09T05:41:15;6.32;;;5.43;;
64684;SDS011;51109;47.414;18.954;2022-09-09T05:43:43;5.05;;;4.65;;
64684;SDS011;51109;47.414;18.954;2022-09-09T05:46:10;5.95;;;5.45;;
64684;SDS011;51109;47.414;18.954;2022-09-09T05:48:38;4.80;;;4.40;;
64684;SDS011;51109;47.414;18.954;2022-09-09T05:51:07;6.03;;;4.80;;
64684;SDS011;51109;47.414;18.954;2022-09-09T05:53:37;8.20;;;5.22;;
64684;SDS011;51109;47.414;18.954;2022-09-09T05:56:07;4.80;;;4.30;;
64684;SDS011;51109;47.414;18.954;2022-09-09T05:58:37;7.75;;;4.45;;
64684;SDS011;51109;47.414;18.954;2022-09-09T06:03:37;4.07;;;3.70;;
64684;SDS011;51109;47.414;18.954;2022-09-09T06:06:06;4.70;;;4.22;;
64684;SDS011;51109;47.414;18.954;2022-09-09T06:08:35;5.53;;;4.60;;
64684;SDS011;51109;47.414;18.954;2022-09-09T06:11:04;4.63;;;4.22;;
64684;SDS011;51109;47.414;18.954;2022-09-09T06:13:31;8.80;;;4.32;;
64684;SDS011;51109;47.414;18.954;2022-09-09T06:15:58;5.97;;;4.00;;
64684;SDS011;51109;47.414;18.954;2022-09-09T06:18:27;4.50;;;4.10;;
64684;SDS011;51109;47.414;18.954;2022-09-09T06:20:55;7.82;;;4.10;;
64684;SDS011;51109;47.414;18.954;2022-09-09T06:23:26;3.95;;;3.60;;
64684;SDS011;51109;47.414;18.954;2022-09-09T06:26:05;6.35;;;4.25;;
64684;SDS011;51109;47.414;18.954;2022-09-09T06:28:36;4.47;;;3.33;;
64684;SDS011;51109;47.414;18.954;2022-09-09T06:31:03;4.25;;;3.45;;
64684;SDS011;51109;47.414;18.954;2022-09-09T06:33:31;5.10;;;3.42;;
64684;SDS011;51109;47.414;18.954;2022-09-09T06:36:02;3.70;;;2.92;;
64684;SDS011;51109;47.414;18.954;2022-09-09T06:38:31;3.80;;;3.50;;
64684;SDS011;51109;47.414;18.954;2022-09-09T06:40:58;5.75;;;3.58;;
64684;SDS011;51109;47.414;18.954;2022-09-09T06:43:25;3.97;;;3.58;;
64684;SDS011;51109;47.414;18.954;2022-09-09T06:48:21;7.90;;;3.50;;
64684;SDS011;51109;47.414;18.954;2022-09-09T06:50:47;9.02;;;3.25;;
64684;SDS011;51109;47.414;18.954;2022-09-09T06:53:18;4.50;;;2.95;;
64684;SDS011;51109;47.414;18.954;2022-09-09T06:55:46;2.78;;;2.58;;
64684;SDS011;51109;47.414;18.954;2022-09-09T06:58:13;4.72;;;3.35;;
64684;SDS011;51109;47.414;18.954;2022-09-09T07:00:38;4.53;;;3.20;;
64684;SDS011;51109;47.414;18.954;2022-09-09T07:03:04;4.95;;;3.22;;
64684;SDS011;51109;47.414;18.954;2022-09-09T07:05:31;3.97;;;2.83;;
64684;SDS011;51109;47.414;18.954;2022-09-09T07:07:57;4.30;;;2.80;;
64684;SDS011;51109;47.414;18.954;2022-09-09T07:10:24;4.10;;;3.10;;
64684;SDS011;51109;47.414;18.954;2022-09-09T07:12:50;3.55;;;2.55;;
64684;SDS011;51109;47.414;18.954;2022-09-09T07:15:20;4.03;;;2.60;;
64684;SDS011;51109;47.414;18.954;2022-09-09T07:17:46;3.35;;;2.70;;
64684;SDS011;51109;47.414;18.954;2022-09-09T07:20:14;3.33;;;2.50;;
64684;SDS011;51109;47.414;18.954;2022-09-09T07:22:40;4.53;;;2.00;;
64684;SDS011;51109;47.414;18.954;2022-09-09T07:25:06;2.25;;;2.10;;
64684;SDS011;51109;47.414;18.954;2022-09-09T07:27:34;3.15;;;2.40;;
64684;SDS011;51109;47.414;18.954;2022-09-09T07:30:00;2.72;;;2.53;;
64684;SDS011;51109;47.414;18.954;2022-09-09T07:32:27;2.45;;;2.25;;
64684;SDS011;51109;47.414;18.954;2022-09-09T07:34:52;2.53;;;1.92;;
64684;SDS011;51109;47.414;18.954;2022-09-09T07:37:18;2.80;;;2.05;;
64684;SDS011;51109;47.414;18.954;2022-09-09T07:39:44;3.08;;;2.78;;
64684;SDS011;51109;47.414;18.954;2022-09-09T07:42:10;2.40;;;2.20;;
64684;SDS011;51109;47.414;18.954;2022-09-09T07:44:37;2.30;;;2.17;;
64684;SDS011;51109;47.414;18.954;2022-09-09T07:47:05;2.22;;;2.03;;
64684;SDS011;51109;47.414;18.954;2022-09-09T07:49:31;3.63;;;2.17;;
64684;SDS011;51109;47.414;18.954;2022-09-09T07:51:57;4.45;;;2.15;;
64684;SDS011;51109;47.414;18.954;2022-09-09T07:54:24;4.13;;;2.00;;
64684;SDS011;51109;47.414;18.954;2022-09-09T07:56:51;2.55;;;2.05;;
64684;SDS011;51109;47.414;18.954;2022-09-09T07:59:17;3.08;;;1.75;;
64684;SDS011;51109;47.414;18.954;2022-09-09T08:01:45;1.70;;;1.60;;
64684;SDS011;51109;47.414;18.954;2022-09-09T08:04:14;2.58;;;1.50;;
64684;SDS011;51109;47.414;18.954;2022-09-09T08:06:49;3.00;;;1.60;;
64684;SDS011;51109;47.414;18.954;2022-09-09T08:09:18;2.70;;;1.70;;
64684;SDS011;51109;47.414;18.954;2022-09-09T08:11:45;1.70;;;1.58;;
64684;SDS011;51109;47.414;18.954;2022-09-09T08:14:12;1.55;;;1.45;;
64684;SDS011;51109;47.414;18.954;2022-09-09T08:16:45;4.15;;;1.70;;
64684;SDS011;51109;47.414;18.954;2022-09-09T08:19:12;1.73;;;1.63;;
64684;SDS011;51109;47.414;18.954;2022-09-09T08:21:40;2.65;;;1.30;;
64684;SDS011;51109;47.414;18.954;2022-09-09T08:24:08;2.15;;;1.20;;
64684;SDS011;51109;47.414;18.954;2022-09-09T08:26:41;3.58;;;1.23;;
64684;SDS011;51109;47.414;18.954;2022-09-09T08:29:09;2.17;;;1.10;;
64684;SDS011;51109;47.414;18.954;2022-09-09T08:31:37;2.13;;;1.20;;
64684;SDS011;51109;47.414;18.954;2022-09-09T08:34:05;1.45;;;1.35;;
64684;SDS011;51109;47.414;18.954;2022-09-09T08:36:34;2.05;;;1.08;;
64684;SDS011;51109;47.414;18.954;2022-09-09T08:39:02;3.63;;;1.50;;
64684;SDS011;51109;47.414;18.954;2022-09-09T08:47:22;1.67;;;1.20;;
64684;SDS011;51109;47.414;18.954;2022-09-09T08:50:21;1.65;;;1.35;;
64684;SDS011;51109;47.414;18.954;2022-09-09T08:53:04;4.63;;;1.40;;
64684;SDS011;51109;47.414;18.954;2022-09-09T08:56:01;3.63;;;1.20;;
64684;SDS011;51109;47.414;18.954;2022-09-09T08:58:35;2.80;;;1.02;;
64684;SDS011;51109;47.414;18.954;2022-09-09T09:07:07;3.25;;;1.10;;
64684;SDS011;51109;47.414;18.954;2022-09-09T09:09:57;1.23;;;1.10;;
64684;SDS011;51109;47.414;18.954;2022-09-09T09:12:30;1.20;;;1.10;;
64684;SDS011;51109;47.414;18.954;2022-09-09T09:15:01;1.27;;;0.98;;
64684;SDS011;51109;47.414;18.954;2022-09-09T09:17:28;1.35;;;1.25;;
64684;SDS011;51109;47.414;18.954;2022-09-09T09:19:58;1.17;;;0.90;;
64684;SDS011;51109;47.414;18.954;2022-09-09T09:25:14;0.90;;;0.90;;
64684;SDS011;51109;47.414;18.954;2022-09-09T09:30:29;1.25;;;0.80;;
64684;SDS011;51109;47.414;18.954;2022-09-09T09:33:02;1.10;;;1.00;;
64684;SDS011;51109;47.414;18.954;2022-09-09T09:35:34;1.65;;;1.00;;
64684;SDS011;51109;47.414;18.954;2022-09-09T09:37:59;0.68;;;0.68;;
64684;SDS011;51109;47.414;18.954;2022-09-09T09:40:26;2.15;;;0.77;;
64684;SDS011;51109;47.414;18.954;2022-09-09T09:45:42;1.60;;;0.68;;
64684;SDS011;51109;47.414;18.954;2022-09-09T09:48:13;0.80;;;0.50;;
64684;SDS011;51109;47.414;18.954;2022-09-09T09:50:46;2.40;;;0.80;;
64684;SDS011;51109;47.414;18.954;2022-09-09T09:56:08;0.80;;;0.80;;
64684;SDS011;51109;47.414;18.954;2022-09-09T09:58:48;1.42;;;0.68;;
64684;SDS011;51109;47.414;18.954;2022-09-09T10:01:30;4.97;;;0.80;;
64684;SDS011;51109;47.414;18.954;2022-09-09T10:04:02;0.90;;;0.90;;
64684;SDS011;51109;47.414;18.954;2022-09-09T10:06:49;2.50;;;0.80;;
64684;SDS011;51109;47.414;18.954;2022-09-09T10:09:25;0.50;;;0.50;;
64684;SDS011;51109;47.414;18.954;2022-09-09T10:22:39;5.28;;;1.13;;
64684;SDS011;51109;47.414;18.954;2022-09-09T10:27:44;0.85;;;0.85;;
64684;SDS011;51109;47.414;18.954;2022-09-09T10:33:33;1.10;;;0.70;;
64684;SDS011;51109;47.414;18.954;2022-09-09T10:36:13;3.97;;;0.70;;
64684;SDS011;51109;47.414;18.954;2022-09-09T10:38:47;2.00;;;0.80;;
64684;SDS011;51109;47.414;18.954;2022-09-09T10:41:53;1.27;;;0.73;;
64684;SDS011;51109;47.414;18.954;2022-09-09T10:48:03;1.00;;;0.90;;
64684;SDS011;51109;47.414;18.954;2022-09-09T10:55:56;2.47;;;0.70;;
64684;SDS011;51109;47.414;18.954;2022-09-09T10:58:48;1.88;;;0.70;;
64684;SDS011;51109;47.414;18.954;2022-09-09T11:01:25;1.85;;;0.60;;
64684;SDS011;51109;47.414;18.954;2022-09-09T11:03:59;6.22;;;0.95;;
64684;SDS011;51109;47.414;18.954;2022-09-09T11:06:32;0.60;;;0.60;;
64684;SDS011;51109;47.414;18.954;2022-09-09T11:09:05;0.85;;;0.60;;
64684;SDS011;51109;47.414;18.954;2022-09-09T11:11:52;0.70;;;0.70;;
64684;SDS011;51109;47.414;18.954;2022-09-09T11:14:30;0.98;;;0.60;;
64684;SDS011;51109;47.414;18.954;2022-09-09T11:17:22;2.47;;;0.60;;
64684;SDS011;51109;47.414;18.954;2022-09-09T11:19:59;3.85;;;0.73;;
64684;SDS011;51109;47.414;18.954;2022-09-09T11:22:37;0.60;;;0.60;;
64684;SDS011;51109;47.414;18.954;2022-09-09T11:36:29;2.53;;;0.80;;
64684;SDS011;51109;47.414;18.954;2022-09-09T11:41:48;1.50;;;0.63;;
64684;SDS011;51109;47.414;18.954;2022-09-09T11:44:19;3.17;;;0.60;;
64684;SDS011;51109;47.414;18.954;2022-09-09T11:46:53;1.85;;;0.80;;
64684;SDS011;51109;47.414;18.954;2022-09-09T11:55:08;1.40;;;0.80;;
64684;SDS011;51109;47.414;18.954;2022-09-09T11:57:57;2.17;;;0.70;;
64684;SDS011;51109;47.414;18.954;2022-09-09T12:00:37;2.03;;;0.68;;
64684;SDS011;51109;47.414;18.954;2022-09-09T12:06:12;1.95;;;0.88;;
64684;SDS011;51109;47.414;18.954;2022-09-09T12:08:45;0.70;;;0.70;;
64684;SDS011;51109;47.414;18.954;2022-09-09T12:11:28;1.25;;;0.90;;
64684;SDS011;51109;47.414;18.954;2022-09-09T12:13:56;0.73;;;0.70;;
64684;SDS011;51109;47.414;18.954;2022-09-09T12:19:13;1.33;;;1.00;;
64684;SDS011;51109;47.414;18.954;2022-09-09T12:24:35;0.80;;;0.80;;
64684;SDS011;51109;47.414;18.954;2022-09-09T12:32:34;2.38;;;0.80;;
64684;SDS011;51109;47.414;18.954;2022-09-09T12:35:04;0.80;;;0.70;;
64684;SDS011;51109;47.414;18.954;2022-09-09T12:37:38;1.02;;;0.80;;
64684;SDS011;51109;47.414;18.954;2022-09-09T12:40:06;2.08;;;0.90;;
64684;SDS011;51109;47.414;18.954;2022-09-09T12:42:48;2.35;;;0.80;;
64684;SDS011;51109;47.414;18.954;2022-09-09T12:50:24;2.67;;;0.80;;
64684;SDS011;51109;47.414;18.954;2022-09-09T12:52:56;2.55;;;0.90;;
64684;SDS011;51109;47.414;18.954;2022-09-09T12:55:30;1.13;;;0.80;;
64684;SDS011;51109;47.414;18.954;2022-09-09T13:00:26;2.35;;;0.70;;
64684;SDS011;51109;47.414;18.954;2022-09-09T13:03:00;0.68;;;0.52;;
64684;SDS011;51109;47.414;18.954;2022-09-09T13:05:28;0.82;;;0.70;;
64684;SDS011;51109;47.414;18.954;2022-09-09T13:10:34;1.65;;;0.57;;
64684;SDS011;51109;47.414;18.954;2022-09-09T13:13:04;0.90;;;0.52;;
64684;SDS011;51109;47.414;18.954;2022-09-09T13:15:47;1.20;;;0.60;;
64684;SDS011;51109;47.414;18.954;2022-09-09T13:18:21;4.28;;;0.93;;
64684;SDS011;51109;47.414;18.954;2022-09-09T13:20:49;3.80;;;0.90;;
64684;SDS011;51109;47.414;18.954;2022-09-09T13:23:17;2.13;;;0.90;;
64684;SDS011;51109;47.414;18.954;2022-09-09T13:25:53;1.70;;;0.57;;
64684;SDS011;51109;47.414;18.954;2022-09-09T13:28:24;1.05;;;0.82;;
64684;SDS011;51109;47.414;18.954;2022-09-09T13:30:56;0.70;;;0.70;;
64684;SDS011;51109;47.414;18.954;2022-09-09T13:33:28;1.23;;;0.80;;
64684;SDS011;51109;47.414;18.954;2022-09-09T13:35:57;1.15;;;0.68;;
64684;SDS011;51109;47.414;18.954;2022-09-09T13:38:24;1.20;;;0.70;;
64684;SDS011;51109;47.414;18.954;2022-09-09T13:41:05;0.77;;;0.68;;
64684;SDS011;51109;47.414;18.954;2022-09-09T13:43:35;2.70;;;0.68;;
64684;SDS011;51109;47.414;18.954;2022-09-09T13:46:30;2.38;;;0.80;;
64684;SDS011;51109;47.414;18.954;2022-09-09T13:49:00;0.60;;;0.60;;
64684;SDS011;51109;47.414;18.954;2022-09-09T13:51:43;4.13;;;0.80;;
64684;SDS011;51109;47.414;18.954;2022-09-09T13:54:13;2.30;;;0.90;;
64684;SDS011;51109;47.414;18.954;2022-09-09T13:56:41;4.82;;;0.90;;
64684;SDS011;51109;47.414;18.954;2022-09-09T13:59:14;1.08;;;0.70;;
64684;SDS011;51109;47.414;18.954;2022-09-09T14:01:44;0.98;;;0.85;;
64684;SDS011;51109;47.414;18.954;2022-09-09T14:04:09;1.10;;;0.60;;
64684;SDS011;51109;47.414;18.954;2022-09-09T14:06:36;0.50;;;0.50;;
64684;SDS011;51109;47.414;18.954;2022-09-09T14:09:03;1.20;;;0.80;;
64684;SDS011;51109;47.414;18.954;2022-09-09T14:11:40;1.85;;;0.93;;
64684;SDS011;51109;47.414;18.954;2022-09-09T14:14:06;2.05;;;0.65;;
64684;SDS011;51109;47.414;18.954;2022-09-09T14:16:32;2.10;;;0.93;;
64684;SDS011;51109;47.414;18.954;2022-09-09T14:18:58;2.67;;;0.65;;
64684;SDS011;51109;47.414;18.954;2022-09-09T14:21:24;3.65;;;1.00;;
64684;SDS011;51109;47.414;18.954;2022-09-09T14:23:51;2.47;;;0.73;;
64684;SDS011;51109;47.414;18.954;2022-09-09T14:26:20;2.53;;;0.73;;
64684;SDS011;51109;47.414;18.954;2022-09-09T14:28:47;0.80;;;0.80;;
64684;SDS011;51109;47.414;18.954;2022-09-09T14:31:13;0.60;;;0.60;;
64684;SDS011;51109;47.414;18.954;2022-09-09T14:33:40;0.75;;;0.70;;
64684;SDS011;51109;47.414;18.954;2022-09-09T14:36:06;2.50;;;0.63;;
64684;SDS011;51109;47.414;18.954;2022-09-09T14:38:33;0.75;;;0.60;;
64684;SDS011;51109;47.414;18.954;2022-09-09T14:41:11;2.10;;;0.80;;
64684;SDS011;51109;47.414;18.954;2022-09-09T14:43:42;2.92;;;0.88;;
64684;SDS011;51109;47.414;18.954;2022-09-09T14:46:09;6.68;;;0.85;;
64684;SDS011;51109;47.414;18.954;2022-09-09T14:48:36;1.20;;;0.70;;
64684;SDS011;51109;47.414;18.954;2022-09-09T14:51:06;3.67;;;1.15;;
64684;SDS011;51109;47.414;18.954;2022-09-09T14:53:32;6.57;;;1.23;;
64684;SDS011;51109;47.414;18.954;2022-09-09T14:56:08;2.10;;;1.05;;
64684;SDS011;51109;47.414;18.954;2022-09-09T14:58:39;3.92;;;0.85;;
64684;SDS011;51109;47.414;18.954;2022-09-09T15:01:06;8.13;;;1.13;;
64684;SDS011;51109;47.414;18.954;2022-09-09T15:03:37;3.22;;;0.80;;
64684;SDS011;51109;47.414;18.954;2022-09-09T15:06:05;0.75;;;0.60;;
64684;SDS011;51109;47.414;18.954;2022-09-09T15:08:39;1.02;;;0.77;;
64684;SDS011;51109;47.414;18.954;2022-09-09T15:11:07;5.85;;;0.77;;
64684;SDS011;51109;47.414;18.954;2022-09-09T15:13:34;1.05;;;0.80;;
64684;SDS011;51109;47.414;18.954;2022-09-09T15:16:35;2.53;;;0.60;;
64684;SDS011;51109;47.414;18.954;2022-09-09T15:18:55;1.17;;;0.93;;
64684;SDS011;51109;47.414;18.954;2022-09-09T15:21:24;1.25;;;0.73;;
64684;SDS011;51109;47.414;18.954;2022-09-09T15:23:54;2.13;;;0.63;;
64684;SDS011;51109;47.414;18.954;2022-09-09T15:26:20;2.97;;;0.82;;
64684;SDS011;51109;47.414;18.954;2022-09-09T15:28:46;2.42;;;0.75;;
64684;SDS011;51109;47.414;18.954;2022-09-09T15:31:19;2.78;;;0.80;;
64684;SDS011;51109;47.414;18.954;2022-09-09T15:33:50;4.63;;;0.90;;
64684;SDS011;51109;47.414;18.954;2022-09-09T15:36:19;1.52;;;0.77;;
64684;SDS011;51109;47.414;18.954;2022-09-09T15:38:47;1.42;;;0.90;;
64684;SDS011;51109;47.414;18.954;2022-09-09T15:41:13;4.63;;;1.27;;
64684;SDS011;51109;47.414;18.954;2022-09-09T15:43:47;1.35;;;0.80;;
64684;SDS011;51109;47.414;18.954;2022-09-09T15:48:53;3.78;;;1.00;;
64684;SDS011;51109;47.414;18.954;2022-09-09T15:51:20;4.32;;;1.00;;
64684;SDS011;51109;47.414;18.954;2022-09-09T15:53:48;1.15;;;0.80;;
64684;SDS011;51109;47.414;18.954;2022-09-09T15:56:20;2.45;;;0.80;;
64684;SDS011;51109;47.414;18.954;2022-09-09T15:58:46;0.93;;;0.70;;
64684;SDS011;51109;47.414;18.954;2022-09-09T16:01:11;1.75;;;0.90;;
64684;SDS011;51109;47.414;18.954;2022-09-09T16:03:38;2.10;;;0.85;;
64684;SDS011;51109;47.414;18.954;2022-09-09T16:06:08;1.38;;;0.90;;
64684;SDS011;51109;47.414;18.954;2022-09-09T16:08:35;1.65;;;0.80;;
64684;SDS011;51109;47.414;18.954;2022-09-09T16:11:06;1.23;;;0.85;;
64684;SDS011;51109;47.414;18.954;2022-09-09T16:13:35;1.15;;;0.80;;
64684;SDS011;51109;47.414;18.954;2022-09-09T16:16:02;2.78;;;0.90;;
64684;SDS011;51109;47.414;18.954;2022-09-09T16:18:42;3.88;;;0.90;;
64684;SDS011;51109;47.414;18.954;2022-09-09T16:21:14;1.63;;;1.38;;
64684;SDS011;51109;47.414;18.954;2022-09-09T16:23:42;6.80;;;2.25;;
64684;SDS011;51109;47.414;18.954;2022-09-09T16:26:13;1.20;;;0.88;;
64684;SDS011;51109;47.414;18.954;2022-09-09T16:28:41;1.45;;;1.00;;
64684;SDS011;51109;47.414;18.954;2022-09-09T16:31:11;3.60;;;1.02;;
64684;SDS011;51109;47.414;18.954;2022-09-09T16:33:41;1.27;;;0.80;;
64684;SDS011;51109;47.414;18.954;2022-09-09T16:36:08;1.63;;;1.00;;
64684;SDS011;51109;47.414;18.954;2022-09-09T16:38:38;5.57;;;0.98;;
64684;SDS011;51109;47.414;18.954;2022-09-09T16:41:04;1.50;;;1.10;;
64684;SDS011;51109;47.414;18.954;2022-09-09T16:43:32;2.30;;;0.98;;
64684;SDS011;51109;47.414;18.954;2022-09-09T16:45:59;2.47;;;1.10;;
64684;SDS011;51109;47.414;18.954;2022-09-09T16:48:31;1.08;;;0.90;;
64684;SDS011;51109;47.414;18.954;2022-09-09T16:51:41;1.58;;;1.00;;
64684;SDS011;51109;47.414;18.954;2022-09-09T16:53:49;4.28;;;1.30;;
64684;SDS011;51109;47.414;18.954;2022-09-09T16:56:16;1.38;;;1.08;;
64684;SDS011;51109;47.414;18.954;2022-09-09T16:58:49;2.33;;;0.90;;
64684;SDS011;51109;47.414;18.954;2022-09-09T17:01:17;2.92;;;1.15;;
64684;SDS011;51109;47.414;18.954;2022-09-09T17:03:42;1.73;;;1.10;;
64684;SDS011;51109;47.414;18.954;2022-09-09T17:06:12;5.78;;;1.50;;
64684;SDS011;51109;47.414;18.954;2022-09-09T17:08:39;1.98;;;1.70;;
64684;SDS011;51109;47.414;18.954;2022-09-09T17:11:13;3.97;;;1.30;;
64684;SDS011;51109;47.414;18.954;2022-09-09T17:13:41;1.50;;;1.10;;
64684;SDS011;51109;47.414;18.954;2022-09-09T17:16:08;4.65;;;1.27;;
64684;SDS011;51109;47.414;18.954;2022-09-09T17:18:35;3.67;;;0.88;;
64684;SDS011;51109;47.414;18.954;2022-09-09T17:21:02;0.90;;;0.90;;
64684;SDS011;51109;47.414;18.954;2022-09-09T17:23:34;1.15;;;0.98;;
64684;SDS011;51109;47.414;18.954;2022-09-09T17:26:03;1.77;;;1.17;;
64684;SDS011;51109;47.414;18.954;2022-09-09T17:28:38;6.68;;;1.00;;